Time;durP1;ratioP1;P1;durP2;ratioP2;P2;SDS_P1;SDS_P2;PMS_P1;PMS_P2;Temp;Humidity;BMP_temperature;BMP_pressure;BME280_temperature;BME280_humidity;BME280_pressure;Samples;Min_cycle;Max_cycle;Signal;HPM_P1;HPM_P2
2021/06/11 00:00:33;;;;;;;5.97;4.75;;;;;;;-150.07;68.10;63374.97;4972530;28;20023;-94
2021/06/11 00:03:00;;;;;;;7.60;4.43;;;;;;;-150.07;69.14;62495.78;4975985;28;20031;-92
2021/06/11 00:05:27;;;;;;;4.35;3.95;;;;;;;-150.07;68.21;62382.75;4980177;28;20026;-93
2021/06/11 00:07:53;;;;;;;4.72;4.22;;;;;;;-150.07;67.21;62412.06;4986216;28;20026;-93
2021/06/11 00:10:21;;;;;;;3.78;3.47;;;;;;;-150.07;68.50;63404.28;4986403;28;20015;-92
2021/06/11 00:12:48;;;;;;;5.25;4.40;;;;;;;-150.07;68.48;62709.28;4984400;28;20084;-93
2021/06/11 00:15:15;;;;;;;4.22;3.45;;;;;;;-150.07;67.40;62343.00;4979765;28;20031;-92
2021/06/11 00:17:45;;;;;;;5.07;3.38;;;;;;;-150.07;66.09;62820.22;4983500;28;20027;-93
2021/06/11 00:20:15;;;;;;;3.97;3.60;;;;;;;-150.07;65.78;62914.41;4983041;28;20118;-95
2021/06/11 00:22:47;;;;;;;3.63;3.15;;;;;;;-150.07;65.14;63058.88;4976276;28;20030;-94
2021/06/11 00:25:23;;;;;;;;;;;;;;;-150.07;65.59;62874.66;4976978;28;20039;-93
2021/06/11 00:28:01;;;;;;;3.30;3.00;;;;;;;-150.07;65.01;63605.28;4975204;28;19945;-85
2021/06/11 00:30:29;;;;;;;4.72;2.92;;;;;;;-150.07;63.90;63019.09;4947252;28;20077;-85
2021/06/11 00:32:57;;;;;;;5.30;4.53;;;;;;;-150.07;63.43;62906.06;4949487;28;20035;-84
2021/06/11 00:35:23;;;;;;;3.50;3.30;;;;;;;-150.07;61.68;63148.88;4956205;28;20047;-81
2021/06/11 00:37:50;;;;;;;4.07;3.55;;;;;;;-150.07;61.73;63075.59;4957324;28;20015;-85
2021/06/11 00:40:18;;;;;;;5.07;3.25;;;;;;;-150.07;61.90;63130.03;4957297;28;20062;-84
2021/06/11 00:42:45;;;;;;;4.43;4.03;;;;;;;-150.07;61.54;63086.06;4956024;28;20057;-84
2021/06/11 00:45:12;;;;;;;3.30;2.45;;;;;;;-150.07;61.25;63077.69;4955648;28;20027;-91
2021/06/11 00:47:39;;;;;;;2.60;2.40;;;;;;;-150.07;60.87;63111.19;4959521;28;20035;-89
2021/06/11 00:50:07;;;;;;;2.70;2.50;;;;;;;-150.07;60.53;63056.78;4972596;28;20488;-87
2021/06/11 00:52:35;;;;;;;3.70;3.40;;;;;;;-150.07;60.93;63159.34;4977338;28;20118;-89
2021/06/11 00:55:02;;;;;;;4.05;2.72;;;;;;;-150.07;61.87;62947.91;4979536;28;20018;-86
2021/06/11 00:57:30;;;;;;;3.35;3.00;;;;;;;-150.07;62.22;63040.03;4955462;28;20477;-85
2021/06/11 00:59:57;;;;;;;5.00;3.70;;;;;;;-150.07;62.08;62891.41;4955972;28;20027;-87
2021/06/11 01:02:24;;;;;;;6.03;3.30;;;;;;;-150.07;61.86;62906.06;4972165;28;20023;-86
2021/06/11 01:04:51;;;;;;;6.68;3.17;;;;;;;-150.07;60.28;63178.19;4964516;28;20023;-84
2021/06/11 01:07:22;;;;;;;3.28;2.97;;;;;;;-150.07;59.30;63194.94;4958193;28;20031;-86
2021/06/11 01:09:49;;;;;;;4.07;3.55;;;;;;;-150.07;58.29;63205.41;4958925;28;20023;-84
2021/06/11 01:12:17;;;;;;;3.63;3.42;;;;;;;-150.07;59.10;63345.66;4957054;28;20392;-84
2021/06/11 01:14:45;;;;;;;4.88;3.63;;;;;;;-150.07;58.21;64036.59;4957314;28;20389;-85
2021/06/11 01:17:12;;;;;;;3.88;3.58;;;;;;;-150.07;59.90;63027.47;4969705;28;20065;-85
2021/06/11 01:20:07;;;;;;;4.50;3.67;;;;;;;-150.07;59.45;63370.78;4949811;28;20043;-81
2021/06/11 01:23:21;;;;;;;4.80;3.35;;;;;;;-150.07;58.84;63395.91;4972921;28;20031;-87
2021/06/11 01:26:10;;;;;;;4.10;3.70;;;;;;;-150.07;59.12;63429.41;4955623;28;20047;-84
2021/06/11 01:28:37;;;;;;;3.92;3.38;;;;;;;-150.07;60.07;63259.84;4956622;28;20031;-81
2021/06/11 01:31:05;;;;;;;4.10;3.72;;;;;;;-150.07;59.17;64135.00;4955428;28;20027;-87
2021/06/11 01:33:34;;;;;;;4.53;3.83;;;;;;;-150.07;59.38;63345.66;4945794;28;20480;-85
2021/06/11 01:36:09;;;;;;;4.40;3.85;;;;;;;-150.07;59.20;63295.41;4951409;28;20038;-85
2021/06/11 01:38:46;;;;;;;4.38;3.83;;;;;;;-150.07;58.54;63418.94;4949067;28;20027;-85
2021/06/11 01:41:17;;;;;;;4.40;3.83;;;;;;;-150.07;58.47;63312.16;4951862;28;20069;-84
2021/06/11 01:43:48;;;;;;;5.43;3.50;;;;;;;-150.07;58.15;63465.00;4943984;28;20024;-84
2021/06/11 01:46:17;;;;;;;5.22;4.78;;;;;;;-150.07;58.01;63391.72;4955065;28;20019;-82
2021/06/11 01:48:48;;;;;;;8.32;4.55;;;;;;;-150.07;57.66;63349.84;4959654;28;20023;-83
2021/06/11 01:51:16;;;;;;;5.68;4.68;;;;;;;-150.07;57.53;63199.13;4961597;28;20032;-84
2021/06/11 01:53:47;;;;;;;6.35;5.75;;;;;;;-150.07;57.47;63665.97;4951217;28;20023;-85
2021/06/11 01:56:18;;;;;;;6.55;5.88;;;;;;;-150.07;57.19;63647.13;4952303;28;20066;-83
2021/06/11 01:58:44;;;;;;;10.20;7.50;;;;;;;-150.07;57.20;63374.97;4961084;28;20409;-82
2021/06/11 02:01:13;;;;;;;7.50;6.45;;;;;;;-150.07;57.63;63504.78;4964404;28;20075;-84
2021/06/11 02:03:45;;;;;;;9.30;7.78;;;;;;;-150.07;58.96;63274.47;4965428;28;20023;-85
2021/06/11 02:06:17;;;;;;;9.88;8.93;;;;;;;-150.07;58.29;63278.66;4958346;28;20042;-84
2021/06/11 02:08:46;;;;;;;10.23;9.23;;;;;;;-150.07;58.94;63377.06;4958340;28;20034;-81
2021/06/11 02:11:13;;;;;;;10.83;8.73;;;;;;;-150.07;59.04;63102.81;4971546;28;20035;-83
2021/06/11 02:13:43;;;;;;;9.65;7.45;;;;;;;-150.07;59.07;64032.41;4972974;28;20023;-80
2021/06/11 02:16:12;;;;;;;10.45;9.30;;;;;;;-150.07;58.88;63027.47;4971888;28;20015;-85
2021/06/11 02:18:39;;;;;;;9.88;8.77;;;;;;;-150.07;58.38;63385.44;4957615;28;20111;-82
2021/06/11 02:21:08;;;;;;;9.27;7.53;;;;;;;-150.07;58.17;63559.22;4952929;28;20028;-85
2021/06/11 02:23:36;;;;;;;9.75;8.75;;;;;;;-150.07;58.04;64225.03;4955931;28;20016;-82
2021/06/11 02:26:04;;;;;;;9.40;8.40;;;;;;;-150.07;58.57;63571.78;4963972;28;20505;-81
2021/06/11 02:28:31;;;;;;;12.77;9.65;;;;;;;-150.07;58.44;63500.59;4967279;28;20035;-83
2021/06/11 02:30:59;;;;;;;13.32;10.02;;;;;;;-150.07;58.86;63517.34;4966850;28;20030;-84
2021/06/11 02:33:27;;;;;;;11.82;10.70;;;;;;;-150.07;59.22;63241.00;4955295;28;20038;-83
2021/06/11 02:35:57;;;;;;;15.65;11.77;;;;;;;-150.07;59.22;63186.56;4957377;28;20385;-85
2021/06/11 02:38:23;;;;;;;;;;;;;;;-150.07;59.99;63416.84;4958824;28;20031;-83
2021/06/11 02:40:52;;;;;;;11.30;10.10;;;;;;;-150.07;61.53;63224.25;4953217;28;19918;-85
2021/06/11 02:43:23;;;;;;;13.57;12.23;;;;;;;-150.07;60.88;63207.50;4953541;28;20083;-84
2021/06/11 02:45:53;;;;;;;12.93;11.00;;;;;;;-150.07;60.75;63814.63;4956819;28;20030;-85
2021/06/11 02:48:28;;;;;;;;;;;;;;;-150.07;60.75;63328.91;4950157;28;20464;-81
2021/06/11 02:51:07;;;;;;;11.63;9.73;;;;;;;-150.07;60.30;63435.69;4962243;28;20256;-85
2021/06/11 02:53:36;;;;;;;13.05;10.13;;;;;;;-150.07;60.37;63153.06;4969392;28;20031;-82
2021/06/11 02:56:09;;;;;;;11.52;10.45;;;;;;;-150.07;59.74;63421.03;4953152;28;20499;-81
2021/06/11 02:58:58;;;;;;;14.45;10.13;;;;;;;-150.07;62.17;63115.38;4952358;28;20531;-82
2021/06/11 03:01:28;;;;;;;11.52;10.43;;;;;;;-150.07;62.75;63594.81;4953728;28;20027;-83
2021/06/11 03:03:58;;;;;;;12.32;10.27;;;;;;;-150.07;62.02;63159.34;4937127;28;20564;-84
2021/06/11 03:06:25;;;;;;;9.68;8.55;;;;;;;-150.07;61.22;63253.56;4962013;28;20022;-86
2021/06/11 03:08:53;;;;;;;11.38;8.85;;;;;;;-150.07;62.97;62813.94;4950771;28;20035;-88
2021/06/11 03:11:31;;;;;;;11.45;10.20;;;;;;;-150.07;63.36;62880.94;4954416;28;20042;-88
2021/06/11 03:13:58;;;;;;;12.00;10.73;;;;;;;-150.07;61.90;63048.41;4968697;28;20522;-88
2021/06/11 03:16:30;;;;;;;11.32;10.05;;;;;;;-150.07;62.12;62851.63;4972838;28;20019;-87
2021/06/11 03:19:08;;;;;;;13.10;10.55;;;;;;;-150.07;63.26;62950.00;4971357;28;20134;-87
2021/06/11 03:21:57;;;;;;;11.43;10.32;;;;;;;-150.07;63.51;62717.66;4961956;28;20030;-87
2021/06/11 03:24:59;;;;;;;10.85;9.07;;;;;;;-150.07;62.55;63165.63;4959202;28;20030;-88
2021/06/11 03:27:33;;;;;;;14.10;9.43;;;;;;;-150.07;62.12;62933.25;4895450;29;20060;-87
2021/06/11 03:30:10;;;;;;;11.75;10.60;;;;;;;-150.07;62.05;62983.50;4976881;28;20821;-88
2021/06/11 03:32:46;;;;;;;11.75;10.27;;;;;;;-150.07;60.70;63081.88;4973768;28;20118;-85
2021/06/11 03:35:22;;;;;;;10.00;9.10;;;;;;;-150.07;60.42;63936.09;4945410;28;20374;-85
2021/06/11 03:37:52;;;;;;;10.27;9.15;;;;;;;-150.07;58.34;63253.56;4942783;28;20043;-84
2021/06/11 03:40:41;;;;;;;10.07;9.02;;;;;;;-150.07;57.61;64233.41;4954188;28;20027;-84
2021/06/11 03:43:09;;;;;;;11.03;9.30;;;;;;;-150.07;58.00;63628.28;4963408;28;20032;-83
2021/06/11 03:45:37;;;;;;;9.98;8.13;;;;;;;-150.07;56.86;63433.59;4973012;28;20034;-84
2021/06/11 03:48:05;;;;;;;8.73;7.82;;;;;;;-150.07;55.80;63626.22;4971985;28;20029;-84
2021/06/11 03:50:34;;;;;;;7.32;6.72;;;;;;;-150.07;55.82;63515.25;4973522;28;20033;-84
2021/06/11 03:53:03;;;;;;;9.98;7.55;;;;;;;-150.07;58.02;63986.34;4974585;28;20034;-85
2021/06/11 03:55:35;;;;;;;8.48;6.45;;;;;;;-150.07;57.23;63563.41;4972035;28;20030;-86
2021/06/11 03:58:09;;;;;;;6.50;5.80;;;;;;;-150.07;55.97;64455.38;4973495;28;20035;-84
2021/06/11 04:00:38;;;;;;;7.13;6.43;;;;;;;-150.07;55.78;63823.00;4973594;28;20039;-84
2021/06/11 04:03:06;;;;;;;8.77;6.72;;;;;;;-150.07;56.39;63490.13;4968644;28;20045;-85
2021/06/11 04:05:34;;;;;;;7.43;6.72;;;;;;;-150.07;57.79;63471.28;4934983;28;20582;-87
2021/06/11 04:08:05;;;;;;;6.15;5.50;;;;;;;-150.07;57.74;64292.03;4962067;28;20030;-88
2021/06/11 04:10:54;;;;;;;7.88;7.07;;;;;;;-150.07;57.57;63439.88;4934135;29;20027;-86
2021/06/11 04:13:36;;;;;;;6.68;5.93;;;;;;;-150.07;56.66;63793.69;4935120;29;20089;-83
2021/06/11 04:16:06;;;;;;;8.30;7.40;;;;;;;-150.07;56.98;63303.78;4935463;29;20098;-84
2021/06/11 04:18:35;;;;;;;9.30;8.02;;;;;;;-150.07;56.54;63904.66;4933971;29;20059;-84
2021/06/11 04:21:03;;;;;;;8.37;7.57;;;;;;;-150.07;55.69;63718.31;4935766;29;20031;-85
2021/06/11 04:23:35;;;;;;;10.15;6.78;;;;;;;-150.07;55.41;63751.81;4936102;29;20032;-82
2021/06/11 04:26:04;;;;;;;9.73;7.60;;;;;;;-150.07;57.07;63320.53;4935406;29;20036;-87
2021/06/11 04:28:34;;;;;;;9.88;7.72;;;;;;;-150.07;56.10;63802.06;4934078;29;20055;-83
2021/06/11 04:31:01;;;;;;;8.98;7.60;;;;;;;-150.07;56.79;63599.00;4936228;29;20495;-86
2021/06/11 04:33:30;;;;;;;8.48;6.10;;;;;;;-150.07;55.49;63483.84;4938914;29;20034;-86
2021/06/11 04:35:57;;;;;;;7.50;6.47;;;;;;;-150.07;55.50;63674.34;4938823;29;20055;-84
2021/06/11 04:38:25;;;;;;;9.40;6.88;;;;;;;-150.07;54.83;63825.09;4943963;29;20079;-84
2021/06/11 04:40:52;;;;;;;11.93;6.60;;;;;;;-150.07;55.35;63391.72;4943497;28;20023;-85
2021/06/11 04:43:24;;;;;;;9.68;6.03;;;;;;;-150.07;55.30;63651.31;4958695;28;20039;-85
2021/06/11 04:45:51;;;;;;;8.77;6.40;;;;;;;-150.07;54.97;63404.28;4957183;28;20027;-85
2021/06/11 04:48:18;;;;;;;8.07;6.38;;;;;;;-150.07;55.39;63538.28;4957555;28;20035;-85
2021/06/11 04:50:45;;;;;;;8.35;5.57;;;;;;;-150.07;56.00;63919.31;4957279;28;20484;-86
2021/06/11 04:53:12;;;;;;;10.95;6.72;;;;;;;-150.07;56.19;63395.91;4959157;28;20082;-84
2021/06/11 04:55:39;;;;;;;8.65;6.35;;;;;;;-150.07;55.66;63481.75;4957786;28;20567;-84
2021/06/11 04:58:05;;;;;;;7.03;6.32;;;;;;;-150.07;54.65;63705.75;4957542;28;20026;-83
2021/06/11 05:00:32;;;;;;;6.13;4.60;;;;;;;-150.07;54.59;64271.09;4957144;28;20444;-84
2021/06/11 05:02:59;;;;;;;3.55;2.65;;;;;;;-150.07;54.33;63483.84;4960583;28;20023;-83
2021/06/11 05:05:26;;;;;;;5.43;4.18;;;;;;;-150.07;54.65;63320.53;4948708;28;20027;-82
2021/06/11 05:07:53;;;;;;;6.05;4.63;;;;;;;-150.07;54.54;64388.38;4958541;28;20031;-84
2021/06/11 05:10:19;;;;;;;7.35;5.78;;;;;;;-150.07;55.36;64258.53;4964514;28;20054;-86
2021/06/11 05:12:46;;;;;;;10.15;6.90;;;;;;;-150.07;55.18;63508.97;4949105;28;20035;-82
2021/06/11 05:15:14;;;;;;;9.32;7.43;;;;;;;-150.07;55.42;63490.13;4961630;28;20035;-83
2021/06/11 05:17:43;;;;;;;11.57;9.43;;;;;;;-150.07;55.48;64292.03;4975218;28;20023;-83
2021/06/11 05:20:10;;;;;;;11.05;8.00;;;;;;;-150.07;54.75;63816.72;4968114;28;20134;-83
2021/06/11 05:22:37;;;;;;;11.70;8.57;;;;;;;-150.07;56.75;64185.25;4972679;28;20039;-85
2021/06/11 05:25:05;;;;;;;12.40;9.60;;;;;;;-150.07;56.53;63305.88;4971004;28;20504;-85
2021/06/11 05:27:32;;;;;;;13.88;9.48;;;;;;;-150.07;55.71;63441.97;4955587;28;20043;-84
2021/06/11 05:29:59;;;;;;;9.13;8.23;;;;;;;-150.07;55.86;63446.16;4971153;28;20035;-82
2021/06/11 05:32:25;;;;;;;11.18;7.75;;;;;;;-150.07;56.10;63703.66;4968005;28;20070;-84
2021/06/11 05:34:54;;;;;;;9.15;7.38;;;;;;;-150.07;56.21;63555.03;4966915;28;20121;-83
2021/06/11 05:37:21;;;;;;;9.63;8.18;;;;;;;-150.07;56.76;63596.91;4968607;28;20058;-86
2021/06/11 05:39:48;;;;;;;11.55;9.32;;;;;;;-150.07;56.27;63640.84;4973358;28;20034;-82
2021/06/11 05:42:15;;;;;;;11.02;8.93;;;;;;;-150.07;56.45;63469.19;4976092;28;20029;-83
2021/06/11 05:44:41;;;;;;;11.90;8.57;;;;;;;-150.07;57.15;63534.09;4972568;28;20575;-85
2021/06/11 05:47:08;;;;;;;9.55;8.27;;;;;;;-150.07;57.52;64105.69;4956895;28;20070;-83
2021/06/11 05:49:35;;;;;;;9.98;8.05;;;;;;;-150.07;56.93;63580.16;4960640;28;20031;-83
2021/06/11 05:52:02;;;;;;;11.00;8.52;;;;;;;-150.07;56.73;63211.69;4955472;28;20038;-82
2021/06/11 05:54:28;;;;;;;11.07;7.95;;;;;;;-150.07;57.23;63584.34;4954592;28;20143;-81
2021/06/11 05:56:57;;;;;;;11.07;9.23;;;;;;;-150.07;57.84;63331.00;4953613;28;20023;-84
2021/06/11 05:59:24;;;;;;;10.83;8.87;;;;;;;-150.07;57.34;64308.81;4957538;28;20054;-80
2021/06/11 06:01:51;;;;;;;7.90;7.10;;;;;;;-150.07;56.32;63542.47;4975448;28;20019;-80
2021/06/11 06:04:18;;;;;;;11.35;7.88;;;;;;;-150.07;56.54;63301.69;4974084;28;20031;-83
2021/06/11 06:06:45;;;;;;;8.45;7.30;;;;;;;-150.07;57.36;63253.56;4956198;28;20101;-84
2021/06/11 06:09:12;;;;;;;8.52;7.25;;;;;;;-150.07;57.33;63630.38;4953487;28;20083;-82
2021/06/11 06:11:40;;;;;;;10.25;8.40;;;;;;;-150.07;57.22;63961.22;4950188;28;20035;-83
2021/06/11 06:14:08;;;;;;;9.13;7.25;;;;;;;-150.07;57.07;64197.81;4958082;28;20028;-84
2021/06/11 06:16:37;;;;;;;8.27;7.15;;;;;;;-150.07;56.79;63642.94;4965924;28;20038;-85
2021/06/11 06:19:04;;;;;;;9.15;7.55;;;;;;;-150.07;56.61;63649.25;4950417;28;20039;-84
2021/06/11 06:21:32;;;;;;;9.00;6.50;;;;;;;-150.07;56.47;64388.38;4975672;28;20035;-83
2021/06/11 06:24:00;;;;;;;12.10;8.77;;;;;;;-150.07;56.71;63571.78;4977555;28;20022;-83
2021/06/11 06:26:27;;;;;;;8.40;7.53;;;;;;;-150.07;56.79;64118.25;4966694;28;20102;-85
2021/06/11 06:28:55;;;;;;;8.57;6.68;;;;;;;-150.07;55.67;63756.00;4969376;28;20511;-84
2021/06/11 06:31:22;;;;;;;7.13;6.43;;;;;;;-150.07;56.36;63751.81;4978373;28;20177;-85
2021/06/11 06:33:49;;;;;;;8.32;6.85;;;;;;;-150.07;55.86;64032.41;4970091;28;20023;-85
2021/06/11 06:36:24;;;;;;;8.10;6.63;;;;;;;-150.07;56.68;63326.81;4964225;28;20059;-87
2021/06/11 06:38:53;;;;;;;8.20;6.38;;;;;;;-150.07;56.33;63724.59;4949262;28;20035;-84
2021/06/11 06:41:24;;;;;;;8.03;5.17;;;;;;;-150.07;56.48;63873.25;4960034;28;20094;-86
2021/06/11 06:43:51;;;;;;;8.23;7.03;;;;;;;-150.07;56.75;64325.56;4962813;28;20275;-86
2021/06/11 06:46:22;;;;;;;8.82;6.50;;;;;;;-150.07;56.43;64254.34;4962865;28;20035;-84
2021/06/11 06:48:55;;;;;;;6.47;5.88;;;;;;;-150.07;56.52;63626.22;4966064;28;20074;-84
2021/06/11 06:51:25;;;;;;;11.75;7.53;;;;;;;-150.07;57.30;63544.56;4977403;28;20388;-86
2021/06/11 06:53:55;;;;;;;6.85;5.85;;;;;;;-150.07;56.21;63613.66;4957512;28;20079;-84
2021/06/11 06:56:24;;;;;;;7.25;6.55;;;;;;;-150.07;56.33;63674.34;4959745;28;20068;-85
2021/06/11 06:58:52;;;;;;;6.60;5.50;;;;;;;-150.07;56.03;63647.13;4972127;28;20031;-85
2021/06/11 07:01:19;;;;;;;7.78;6.55;;;;;;;-150.07;57.21;63326.81;4956639;28;20115;-86
2021/06/11 07:03:46;;;;;;;8.18;6.47;;;;;;;-150.07;56.86;63624.13;4958123;28;20385;-86
2021/06/11 07:06:14;;;;;;;6.88;6.18;;;;;;;-150.07;57.04;63245.19;4966849;28;20014;-85
2021/06/11 07:08:41;;;;;;;9.02;6.72;;;;;;;-150.07;57.14;63584.34;4971867;28;20035;-86
2021/06/11 07:11:08;;;;;;;9.55;7.65;;;;;;;-150.07;56.13;63661.78;4954887;28;20716;-83
2021/06/11 07:13:35;;;;;;;15.57;10.38;;;;;;;-150.07;56.31;63404.28;4967953;28;20118;-83
2021/06/11 07:16:02;;;;;;;9.85;8.85;;;;;;;-150.07;57.89;63324.72;4963809;28;20038;-84
2021/06/11 07:18:28;;;;;;;12.13;8.27;;;;;;;-150.07;57.93;63400.09;4965906;28;20047;-84
2021/06/11 07:20:55;;;;;;;10.68;8.77;;;;;;;-150.07;57.86;63211.69;4957741;28;20027;-85
2021/06/11 07:23:25;;;;;;;14.82;9.15;;;;;;;-150.07;58.21;63161.44;4967589;28;20019;-85
2021/06/11 07:25:52;;;;;;;;;;;;;;;-150.07;57.39;63475.47;4974446;28;20015;-84
2021/06/11 07:28:22;;;;;;;10.65;8.18;;;;;;;-150.07;57.82;63354.03;4959112;28;20405;-82
2021/06/11 07:30:48;;;;;;;;;;;;;;;-150.07;56.11;63712.03;4952790;28;20099;-82
2021/06/11 07:33:15;;;;;;;13.38;7.22;;;;;;;-150.07;55.93;63490.13;4961524;28;19915;-80
2021/06/11 07:35:42;;;;;;;8.93;7.75;;;;;;;-150.07;56.12;63458.72;4958972;28;20521;-82
2021/06/11 07:38:08;;;;;;;14.68;9.48;;;;;;;-150.07;55.34;63768.56;4970646;28;20083;-81
2021/06/11 07:40:35;;;;;;;9.50;8.23;;;;;;;-150.07;54.77;63927.69;4961292;28;20032;-82
2021/06/11 07:43:02;;;;;;;9.10;7.65;;;;;;;-150.07;54.42;64568.47;4962155;28;20038;-81
2021/06/11 07:45:30;;;;;;;9.07;6.47;;;;;;;-150.07;55.11;63722.50;4966539;28;20034;-82
2021/06/11 07:47:57;;;;;;;7.35;6.40;;;;;;;-150.07;56.71;63517.34;4974840;28;20028;-82
2021/06/11 07:50:25;;;;;;;10.93;6.63;;;;;;;-150.07;57.19;63391.72;4968767;28;20050;-82
2021/06/11 07:52:51;;;;;;;8.25;6.15;;;;;;;-150.07;56.74;63536.19;4956386;28;20035;-81
2021/06/11 07:55:18;;;;;;;6.50;5.88;;;;;;;-150.07;57.81;63385.44;4957401;28;20038;-83
2021/06/11 07:57:45;;;;;;;6.25;5.65;;;;;;;-150.07;56.95;63381.25;4958005;28;20031;-82
2021/06/11 08:00:12;;;;;;;6.90;6.05;;;;;;;-150.07;57.51;63427.31;4950104;28;20039;-83
2021/06/11 08:02:42;;;;;;;6.07;5.22;;;;;;;-150.07;58.09;63153.06;4950098;28;20596;-84
2021/06/11 08:05:10;;;;;;;7.40;6.35;;;;;;;-150.07;57.83;63052.59;4948453;28;20056;-84
2021/06/11 08:07:37;;;;;;;6.88;6.00;;;;;;;-150.07;57.01;63404.28;4954467;28;20089;-81
2021/06/11 08:10:06;;;;;;;8.60;6.53;;;;;;;-150.07;56.99;63253.56;4959695;28;20038;-82
2021/06/11 08:12:33;;;;;;;8.43;7.07;;;;;;;-150.07;58.02;63010.72;4957517;28;20559;-82
2021/06/11 08:15:00;;;;;;;10.20;8.68;;;;;;;-150.07;57.00;63347.75;4955710;28;20095;-82
2021/06/11 08:17:27;;;;;;;10.07;7.65;;;;;;;-150.07;58.07;63965.41;4957602;28;20019;-81
2021/06/11 08:19:54;;;;;;;15.02;10.02;;;;;;;-150.07;59.80;63102.81;4955671;28;20115;-82
2021/06/11 08:22:21;;;;;;;12.77;8.63;;;;;;;-150.07;60.12;62730.22;4960535;28;20405;-82
2021/06/11 08:24:48;;;;;;;9.55;8.30;;;;;;;-150.07;60.50;62903.97;4968239;28;20027;-83
2021/06/11 08:27:15;;;;;;;12.00;8.07;;;;;;;-150.07;60.05;63224.25;4968002;28;20075;-82
2021/06/11 08:29:42;;;;;;;8.95;7.60;;;;;;;-150.07;60.13;63054.69;4970236;28;20042;-82
2021/06/11 08:32:09;;;;;;;11.48;8.32;;;;;;;-150.07;59.29;63224.25;4963952;28;20035;-83
2021/06/11 08:34:37;;;;;;;9.70;7.13;;;;;;;-150.07;58.59;63425.22;4957334;28;20036;-82
2021/06/11 08:37:07;;;;;;;12.02;9.60;;;;;;;-150.07;59.41;62962.56;4955390;28;20059;-85
2021/06/11 08:39:35;;;;;;;11.65;8.43;;;;;;;-150.07;59.70;62987.69;4954088;28;20098;-83
2021/06/11 08:42:05;;;;;;;11.00;9.23;;;;;;;-150.07;59.50;63278.66;4958896;28;20035;-82
2021/06/11 08:44:31;;;;;;;;;;;;;;;-150.07;59.59;63274.47;4945985;28;20095;-82
2021/06/11 08:46:59;;;;;;;13.63;8.45;;;;;;;-150.07;58.70;63362.41;4952021;28;19918;-80
2021/06/11 08:49:25;;;;;;;10.35;7.72;;;;;;;-150.07;58.84;63358.22;4950900;28;20468;-80
2021/06/11 08:51:55;;;;;;;9.50;8.10;;;;;;;-150.07;57.96;63471.28;4971878;28;20034;-83
2021/06/11 08:54:22;;;;;;;11.48;8.20;;;;;;;-150.07;58.00;63351.94;4953467;28;20032;-82
2021/06/11 08:56:50;;;;;;;12.75;9.18;;;;;;;-150.07;58.03;63496.41;4950221;28;20079;-80
2021/06/11 08:59:17;;;;;;;12.02;8.65;;;;;;;-150.07;58.07;64047.06;4949326;28;20054;-80
2021/06/11 09:01:44;;;;;;;10.80;9.48;;;;;;;-150.07;57.29;63555.03;4953692;28;20077;-82
2021/06/11 09:04:11;;;;;;;14.95;10.15;;;;;;;-150.07;57.47;63540.38;4958037;28;20023;-80
2021/06/11 09:06:38;;;;;;;14.68;11.27;;;;;;;-150.07;57.07;64141.28;4958194;28;20059;-80
2021/06/11 09:09:05;;;;;;;15.23;10.90;;;;;;;-150.07;57.21;63299.59;4947995;29;20019;-79
2021/06/11 09:11:34;;;;;;;15.05;11.23;;;;;;;-150.07;57.61;63496.41;4953020;28;20042;-79
2021/06/11 09:14:15;;;;;;;16.00;10.98;;;;;;;-150.07;58.08;63500.59;4956494;28;20090;-79
2021/06/11 09:16:46;;;;;;;15.00;10.88;;;;;;;-150.07;58.27;63395.91;4954820;28;20011;-80
2021/06/11 09:19:18;;;;;;;14.07;11.43;;;;;;;-150.07;58.69;63199.13;4954896;29;20564;-80
2021/06/11 09:21:49;;;;;;;15.20;10.88;;;;;;;-150.07;59.19;63393.81;4950633;28;20378;-80
2021/06/11 09:24:30;;;;;;;15.20;10.98;;;;;;;-150.07;59.42;63370.78;4954641;28;20385;-80
2021/06/11 09:29:29;;;;;;;13.05;9.73;;;;;;;-150.07;59.42;63379.16;4955937;28;20055;-83
2021/06/11 09:32:28;;;;;;;14.25;11.13;;;;;;;-150.07;59.85;63192.84;4938240;28;20031;-78
2021/06/11 09:35:04;;;;;;;17.77;11.73;;;;;;;-150.07;60.88;63111.19;4931922;29;20552;-80
2021/06/11 09:37:38;;;;;;;18.73;11.30;;;;;;;-150.07;61.70;63092.34;4935284;29;20107;-80
2021/06/11 09:40:11;;;;;;;17.10;10.77;;;;;;;-150.07;61.63;63107.00;4953592;28;20058;-81
2021/06/11 09:42:44;;;;;;;15.05;11.50;;;;;;;-150.07;61.52;63787.41;4953783;28;20042;-81
2021/06/11 09:45:16;;;;;;;17.17;12.95;;;;;;;-150.07;61.37;62931.16;4935855;29;20024;-83
2021/06/11 09:47:55;;;;;;;20.52;12.73;;;;;;;-150.07;61.59;63107.00;4935796;29;20019;-80
2021/06/11 09:50:26;;;;;;;17.67;12.73;;;;;;;-150.07;61.72;63810.44;4934552;28;20027;-79
2021/06/11 09:53:10;;;;;;;20.10;13.95;;;;;;;-150.07;62.25;62908.16;4952827;28;20146;-81
2021/06/11 09:55:57;;;;;;;17.33;11.85;;;;;;;-150.07;61.74;63603.19;4954627;29;20540;-79
2021/06/11 09:58:36;;;;;;;16.63;12.68;;;;;;;-150.07;61.07;63205.41;4962545;28;20031;-80
2021/06/11 10:01:11;;;;;;;26.80;14.70;;;;;;;-150.07;60.63;63232.63;4948137;28;20046;-79
2021/06/11 10:03:40;;;;;;;19.02;14.93;;;;;;;-150.07;60.28;62968.84;4949921;28;20023;-80
2021/06/11 10:06:08;;;;;;;18.85;13.30;;;;;;;-150.07;60.19;63228.44;4946557;28;20031;-79
2021/06/11 10:08:37;;;;;;;17.88;13.25;;;;;;;-150.07;60.62;63176.09;4942262;29;20106;-80
2021/06/11 10:11:06;;;;;;;19.02;14.35;;;;;;;-150.07;61.18;63136.31;4943003;28;20031;-79
2021/06/11 10:13:34;;;;;;;18.13;13.43;;;;;;;-150.07;61.05;63017.00;4947772;29;20036;-80
2021/06/11 10:16:19;;;;;;;19.58;12.63;;;;;;;-150.07;60.45;63276.56;4942216;28;20035;-79
2021/06/11 10:18:47;;;;;;;21.10;14.65;;;;;;;-150.07;61.11;63615.75;4948327;28;20405;-78
2021/06/11 10:21:14;;;;;;;23.02;14.00;;;;;;;-150.07;62.19;63121.66;4941696;28;20027;-80
2021/06/11 10:23:42;;;;;;;23.30;15.00;;;;;;;-150.07;63.23;62954.19;4942843;29;20027;-80
2021/06/11 10:26:11;;;;;;;23.25;14.75;;;;;;;-150.07;63.41;63592.72;4940910;28;20038;-79
2021/06/11 10:28:45;;;;;;;24.67;16.05;;;;;;;-150.07;62.76;63130.03;4946241;28;20503;-80
2021/06/11 10:31:14;;;;;;;23.00;15.38;;;;;;;-150.07;62.92;63077.69;4943205;28;20035;-80
2021/06/11 10:33:47;;;;;;;33.05;18.30;;;;;;;-150.07;63.46;63065.16;4945337;28;20032;-79
2021/06/11 10:38:55;;;;;;;28.77;18.23;;;;;;;-150.07;62.88;63031.66;4947497;28;20035;-78
2021/06/11 10:41:25;;;;;;;26.55;16.88;;;;;;;-150.07;62.55;63174.00;4943942;28;20042;-80
2021/06/11 10:43:52;;;;;;;21.50;16.85;;;;;;;-150.07;62.07;63182.38;4954693;28;20370;-78
2021/06/11 10:46:26;;;;;;;26.63;16.35;;;;;;;-150.07;62.25;63186.56;4954436;28;20039;-79
2021/06/11 10:49:06;;;;;;;27.02;16.80;;;;;;;-150.07;63.42;63793.69;4949338;28;20106;-79
2021/06/11 10:51:33;;;;;;;25.73;16.05;;;;;;;-150.07;63.47;63060.97;4949183;28;20098;-79
2021/06/11 10:54:24;;;;;;;31.75;18.23;;;;;;;-150.07;64.08;63027.47;4952878;28;20041;-78
2021/06/11 10:57:00;;;;;;;27.02;16.88;;;;;;;-150.07;65.28;62920.69;4955133;28;20031;-78
2021/06/11 10:59:37;;;;;;;32.33;19.35;;;;;;;-150.07;65.24;62910.25;4947652;29;20028;-79
2021/06/11 11:02:05;;;;;;;26.20;17.17;;;;;;;-150.07;65.11;62981.41;4959466;28;20040;-78
2021/06/11 11:04:37;;;;;;;33.40;19.63;;;;;;;-150.07;66.16;62866.28;4960441;28;20023;-79
2021/06/11 11:07:27;;;;;;;35.17;19.85;;;;;;;-150.07;66.54;62868.38;4957731;28;20027;-77
2021/06/11 11:10:32;;;;;;;35.70;21.83;;;;;;;-150.07;67.13;62732.31;4949563;28;20106;-79
2021/06/11 11:13:08;;;;;;;35.40;21.65;;;;;;;-150.07;67.52;62801.38;4956904;28;20036;-77
2021/06/11 11:15:40;;;;;;;35.30;20.67;;;;;;;-150.07;67.60;63326.81;4952364;28;20031;-79
2021/06/11 11:18:13;;;;;;;35.05;20.25;;;;;;;-150.07;67.84;62751.16;4977740;28;20671;-78
2021/06/11 11:20:42;;;;;;;34.40;20.58;;;;;;;-150.07;67.42;62801.38;4948812;28;20032;-78
2021/06/11 11:23:11;;;;;;;37.70;21.67;;;;;;;-150.07;66.81;62889.31;4941600;28;20461;-77
2021/06/11 11:25:57;;;;;;;40.37;20.70;;;;;;;-150.07;66.21;62903.97;4933511;28;20338;-77
2021/06/11 11:28:23;;;;;;;36.50;22.15;;;;;;;-150.07;67.21;62836.97;4932987;28;20028;-77
2021/06/11 11:30:50;;;;;;;39.35;23.17;;;;;;;-150.07;67.53;62851.63;4932731;28;20024;-78